Leeuwarden, Netherlands

9:45 AM CEST on July 28, 2017 (GMT +0200)
Leeuwarden Air Base

Weather History for EHLW - April, 2013

Change the Weather History Date:

Tuesday, April 2, 2013

  Actual Average Record
Temperature  
Mean Temperature 34 °F -  
Max Temperature 45 °F 52 °F 71 °F (2011)
Min Temperature 23 °F 38 °F 23 °F (2013)
Degree Days  
Heating Degree Days 31    
Moisture  
Dew Point 25 °F    
Average Humidity 74    
Maximum Humidity 100    
Minimum Humidity 28    
Precipitation  
Precipitation 0.00 in - - ()
Sea Level Pressure  
Sea Level Pressure 30.00 in    
Wind  
Wind Speed 8 mph ()    
Max Wind Speed 23 mph    
Max Gust Speed -    
Visibility 6.3 miles    
Events      
Averages and records for this station are not official NWS values.
T = Trace of Precipitation, MM = Missing Value Source: Averaged Metar Reports

Daily Weather History Graph

Daily Weather History Graph

Search for Another Location

Airport or City:

Trip Planner

Search our weather history database for the weather conditions in past years. The results will help you decide how hot, cold, wet, or windy it might be!

Date:

Astronomy

Apr. 02, 2013 Rise Set
Actual Time 7:08 AM CEST 8:14 PM CEST
Civil Twilight 6:32 AM CEST 8:49 PM CEST
Nautical Twilight 5:49 AM CEST 9:32 PM CEST
Astronomical Twilight 5:03 AM CEST 10:19 PM CEST
Moon 2:40 AM CEST (4/2) 11:06 AM CEST (4/2)
Length of Visible Light 14h 16m
Length of Day
13h 05m
Waning Gibbous, 59% of the Moon is Illuminated
Apr 2
Waning Gibbous
Apr 3
Last Quarter
Apr 10
New
Apr 18
First Quarter
Apr 25
Full

Hourly Weather History & Observations

Time (CEST) Temp. Windchill Dew Point Humidity Pressure Visibility Wind Dir Wind Speed Gust Speed Precip Events Conditions
12:25 AM 30.2 °F 22.6 °F 26.6 °F 86% 29.95 in 6.2 mi ENE 8.1 mph - N/A   Unknown
12:55 AM 28.4 °F 21.2 °F 26.6 °F 93% 29.95 in 6.2 mi ENE 6.9 mph - N/A   Unknown
1:25 AM 28.4 °F 22.2 °F 26.6 °F 93% 29.95 in 6.2 mi ENE 5.8 mph - N/A   Unknown
1:55 AM 28.4 °F 21.2 °F 26.6 °F 93% 29.95 in 6.2 mi ENE 6.9 mph - N/A   Unknown
2:00 AM 29 °F - 27 °F 87% 29.97 in 13 mi ENE 6.7 mph - -   Partly Cloudy
2:25 AM 28.4 °F 20.4 °F 26.6 °F 93% 29.98 in 6.2 mi ENE 8.1 mph - N/A   Unknown
2:55 AM 28.4 °F 21.2 °F 26.6 °F 93% 29.98 in 6.2 mi ENE 6.9 mph - N/A   Unknown
3:25 AM 28.4 °F 22.2 °F 26.6 °F 93% 29.98 in 6.2 mi NE 5.8 mph - N/A   Unknown
3:55 AM 28.4 °F 23.3 °F 26.6 °F 93% 29.98 in 6.2 mi ENE 4.6 mph - N/A   Unknown
4:25 AM 28.4 °F 23.3 °F 26.6 °F 93% 29.98 in 6.2 mi ENE 4.6 mph - N/A   Unknown
4:55 AM 24.8 °F 17.9 °F 23.0 °F 93% 29.95 in 6.2 mi NE 5.8 mph - N/A   Partly Cloudy
5:25 AM 28.4 °F 22.2 °F 26.6 °F 93% 29.95 in 6.2 mi ENE 5.8 mph - N/A   Partly Cloudy
5:55 AM 26.6 °F 21.2 °F 24.8 °F 93% 29.98 in 6.2 mi NE 4.6 mph - N/A   Partly Cloudy
6:25 AM 26.6 °F 21.2 °F 24.8 °F 93% 29.98 in 6.2 mi ENE 4.6 mph - N/A   Unknown
6:42 AM 26.6 °F 20.0 °F 26.6 °F 100% 29.98 in 3.1 mi ENE 5.8 mph - N/A   Mist
6:46 AM 26.6 °F 20.0 °F 24.8 °F 93% 29.98 in 5.6 mi ENE 5.8 mph - N/A   Mist
6:50 AM 26.6 °F 20.0 °F 24.8 °F 93% 29.98 in 3.7 mi NE 5.8 mph - N/A   Mist
6:55 AM 26.6 °F 20.0 °F 24.8 °F 93% 29.98 in 5.6 mi NE 5.8 mph - N/A   Mist
7:08 AM 26.6 °F 21.2 °F 24.8 °F 93% 29.98 in 6.2 mi ENE 4.6 mph - N/A   Partly Cloudy
7:19 AM 26.6 °F 21.2 °F 24.8 °F 93% 29.98 in 5.6 mi ENE 4.6 mph - N/A   Mist
7:25 AM 26.6 °F 21.2 °F 24.8 °F 93% 29.98 in - ENE 4.6 mph - N/A   Partly Cloudy
7:30 AM 26.6 °F 21.2 °F 24.8 °F 93% 29.98 in 3.1 mi ENE 4.6 mph - N/A   Partly Cloudy
7:33 AM 26.6 °F 21.2 °F 26.6 °F 100% 29.98 in - ENE 4.6 mph - N/A   Mist
7:38 AM 26.6 °F 20.0 °F 24.8 °F 93% 29.98 in 4.3 mi ENE 5.8 mph - N/A   Mist
7:44 AM 28.4 °F 23.3 °F 26.6 °F 93% 29.98 in 5.0 mi ENE 4.6 mph - N/A   Mist
7:55 AM 26.6 °F 21.2 °F 24.8 °F 93% 29.98 in 5.0 mi ENE 4.6 mph - N/A   Mist
7:56 AM 28.4 °F 23.3 °F 26.6 °F 93% 29.98 in 6.2 mi ENE 4.6 mph - N/A   Unknown
8:00 AM 28 °F - 26 °F 91% 30.00 in 7 mi ENE 4.5 mph - -   Partly Cloudy
8:10 AM 28.4 °F 23.3 °F 26.6 °F 93% 29.98 in 6.2 mi NE 4.6 mph - N/A   Unknown
8:25 AM 28.4 °F 23.3 °F 28.4 °F 100% 29.98 in 6.2 mi NE 4.6 mph - N/A   Unknown
8:55 AM 32.0 °F 27.5 °F 30.2 °F 93% 30.01 in 6.2 mi NE 4.6 mph - N/A   Partly Cloudy
9:25 AM 33.8 °F 27.7 °F 32.0 °F 93% 30.01 in 6.2 mi NE 6.9 mph - N/A   Unknown
9:55 AM 37.4 °F 31.4 °F 33.8 °F 87% 30.01 in 6.2 mi ENE 8.1 mph - N/A   Unknown
10:25 AM 39.2 °F 32.5 °F 30.2 °F 70% 30.01 in 6.2 mi ENE 10.4 mph - N/A   Unknown
10:38 AM 41.0 °F 34.7 °F 28.4 °F 61% 30.01 in 6.2 mi ENE 10.4 mph - N/A   Unknown
10:55 AM 41.0 °F 33.9 °F 26.6 °F 57% 30.01 in 6.2 mi ENE 12.7 mph - N/A   Unknown
11:25 AM 42.8 °F 35.8 °F 21.2 °F 42% 30.01 in 6.2 mi NE 13.8 mph - N/A   Unknown
11:55 AM 42.8 °F 35.4 °F 21.2 °F 42% 30.01 in 6.2 mi ENE 15.0 mph - N/A   Unknown
12:25 PM 44.6 °F 37.2 °F 21.2 °F 39% 30.01 in 6.2 mi NE 17.3 mph - N/A   Partly Cloudy
12:55 PM 42.8 °F 35.4 °F 19.4 °F 39% 30.01 in 6.2 mi NE 15.0 mph - N/A   Unknown
1:25 PM 44.6 °F 37.2 °F 24.8 °F 46% 30.01 in 6.2 mi NE 17.3 mph - N/A   Scattered Clouds
1:55 PM 44.6 °F 37.2 °F 24.8 °F 46% 30.01 in 6.2 mi NNE 17.3 mph - N/A   Unknown
2:00 PM 45 °F - 23 °F 28% 30.01 in 28 mi NE 17.9 mph - -   Partly Cloudy
2:25 PM 44.6 °F 36.9 °F 26.6 °F 49% 30.01 in 6.2 mi NNE 18.4 mph - N/A   Partly Cloudy
2:55 PM 44.6 °F 36.6 °F 24.8 °F 46% 30.01 in 6.2 mi NE 19.6 mph - N/A   Partly Cloudy
3:25 PM 44.6 °F 36.1 °F 19.4 °F 37% 30.01 in 6.2 mi NE 21.9 mph - N/A   Unknown
3:55 PM 44.6 °F 36.6 °F 17.6 °F 34% 30.01 in 6.2 mi NE 19.6 mph - N/A   Unknown
4:25 PM 44.6 °F 35.9 °F 19.4 °F 37% 30.01 in 6.2 mi NE 23.0 mph - N/A   Unknown
4:55 PM 44.6 °F 36.1 °F 21.2 °F 39% 30.01 in 6.2 mi NE 21.9 mph - N/A   Partly Cloudy
5:25 PM 42.8 °F 33.5 °F 21.2 °F 42% 30.01 in 6.2 mi NE 23.0 mph - N/A   Partly Cloudy
5:55 PM 42.8 °F 34.0 °F 19.4 °F 39% 30.01 in 6.2 mi NE 20.7 mph - N/A   Unknown
6:25 PM 41.0 °F 31.9 °F 23.0 °F 49% 30.01 in 6.2 mi NE 19.6 mph - N/A   Unknown
6:55 PM 41.0 °F 32.5 °F 24.8 °F 53% 30.01 in 6.2 mi NE 17.3 mph - N/A   Partly Cloudy
7:25 PM 39.2 °F 30.5 °F 26.6 °F 61% 30.01 in 6.2 mi NE 16.1 mph - N/A   Partly Cloudy
7:55 PM 37.4 °F 28.2 °F 28.4 °F 70% 30.01 in 6.2 mi NE 16.1 mph - N/A   Partly Cloudy
8:00 PM 37 °F - 28 °F 59% 30.03 in 19 mi NE 15.7 mph - -   Partly Cloudy
8:25 PM 35.6 °F 26.2 °F 26.6 °F 70% 30.04 in 6.2 mi NE 15.0 mph - N/A   Unknown
8:55 PM 35.6 °F 26.2 °F 26.6 °F 70% 30.04 in 6.2 mi NE 15.0 mph - N/A   Unknown
9:25 PM 35.6 °F 27.1 °F 26.6 °F 70% 30.04 in 6.2 mi NE 12.7 mph - N/A   Unknown
9:55 PM 35.6 °F 27.1 °F 26.6 °F 70% 30.04 in 6.2 mi NE 12.7 mph - N/A   Unknown
10:25 PM 33.8 °F 25.3 °F 26.6 °F 75% 30.06 in 6.2 mi NE 11.5 mph - N/A   Unknown
10:55 PM 33.8 °F 25.8 °F 26.6 °F 75% 30.06 in 6.2 mi ENE 10.4 mph - N/A   Unknown
11:25 PM 32.0 °F 23.6 °F 24.8 °F 75% 30.06 in 6.2 mi ENE 10.4 mph - N/A   Unknown
11:55 PM 33.8 °F 25.3 °F 24.8 °F 70% 30.06 in 6.2 mi ENE 11.5 mph - N/A   Partly Cloudy